Boaz, AL

11:21 AM CDT on August 30, 2014 (GMT -0500)
Scottsboro | Change Station
CLOSE
Current Station
Airport
Location: Scottsboro,
Elevation: 650 ft
Nearby Weather Stations

Elev 650 ft 34.69 °N, 86.01 °W | Updated 6 minutes ago

Clear
Clear
82 °F
Feels Like 87 °F
N
5
Wind Variable Wind from South

Today
High -- | Low -- °F
--% Chance of Precip.
Yesterday
High -- | Low -- °F
Precip. -- in
6:16 AM 7:13 PM
Waxing Crescent, 23% visible
Pressure 30.13 in
Visibility 10.0 miles
Clouds Clear
Heat Index 87 °F
Dew Point 72 °F
Humidity 70%
Rainfall 0.00 in
Snow Depth Not available.
UV 9 out of 12
Pollen 5.20 out of 12
Ozone Good
PM2.5 Moderate
Flu Activity Not available.
METAR K4A6 301615Z AUTO 18004KT 10SM CLR 28/22 A3013 RMK AO2

More Conditions Fewer Conditions

Pressure 30.13 in
Visibility 10.0 miles
Clouds Clear
Heat Index 87 °F
Dew Point 72 °F
Humidity 70%
Rainfall 0.00 in
Snow Depth Not available.
UV 9 out of 12
Pollen 5.20 out of 12
Ozone Good
PM2.5 Moderate
Flu Activity Not available.
METAR K4A6 301615Z AUTO 18004KT 10SM CLR 28/22 A3013 RMK AO2

More Conditions Fewer Conditions

10-Day Weather Forecast

Almanac

Astronomy

Aug. 30, 2014 Rise Set
Actual Time 6:16 AM CDT 7:13 PM CDT
Civil Twilight 5:50 AM CDT 7:38 PM CDT
Nautical Twilight 5:20 AM CDT 8:09 PM CDT
Astronomical Twilight 4:49 AM CDT 8:40 PM CDT
Moon 10:49 AM CDT 10:02 PM CDT
Length of Visible Light 13h 47m
Length of Day
12h 56m
Tomorrow will be 2m 2s shorter.
Waxing Crescent, 23% of the Moon is Illuminated
Today
Waxing Crescent
Sep 2
First Quarter
Sep 8
Full
Sep 15
Last Quarter
Sep 24
New

Today's Extremes

State Highs State Lows

Community

WunderPhotos

Upload Photos

1,748,556 photos uploaded!

WunderBlogs® & News

Nearby

Air Quality

  Air Quality AQ Index Pollutant
Yesterday Good
PM10
Yesterday Moderate
OZONE
Current Moderate
PM2.5
Current Good
OZONE
Saturday Moderate
PM2.5
Saturday Good
OZONE
Sunday Good
OZONE
Sunday Good
PM2.5
Monday Good
PM2.5
Monday Good
OZONE
Tuesday Good
OZONE

Snow Depth

Station Depth Elevation
No new snow has been reported.

Earthquake Activity

City Distance Mag. Time & Date
No recent earthquake activity has been reported nearby.
Minimum magnitude displayed is 2.5.

Coastal Water Temperatures

Place Temperature
No Stations Reporting

Nearby Weather Stations